sensor_id;sensor_type;location;lat;lon;timestamp;P1;durP1;ratioP1;P2;durP2;ratioP2
57321;SDS011;43159;51.006;18.224;2023-06-14T00:03:45;10.60;;;3.70;;
57321;SDS011;43159;51.006;18.224;2023-06-14T00:13:30;7.60;;;3.10;;
57321;SDS011;43159;51.006;18.224;2023-06-14T00:23:20;10.30;;;4.20;;
57321;SDS011;43159;51.006;18.224;2023-06-14T00:33:02;9.00;;;3.50;;
57321;SDS011;43159;51.006;18.224;2023-06-14T00:42:46;9.50;;;3.10;;
57321;SDS011;43159;51.006;18.224;2023-06-14T00:52:32;9.40;;;3.40;;
57321;SDS011;43159;51.006;18.224;2023-06-14T01:02:15;8.10;;;2.60;;
57321;SDS011;43159;51.006;18.224;2023-06-14T01:22:26;11.10;;;3.80;;
57321;SDS011;43159;51.006;18.224;2023-06-14T01:32:17;11.40;;;3.80;;
57321;SDS011;43159;51.006;18.224;2023-06-14T01:42:01;10.10;;;3.90;;
57321;SDS011;43159;51.006;18.224;2023-06-14T01:51:43;9.70;;;3.50;;
57321;SDS011;43159;51.006;18.224;2023-06-14T02:01:25;11.10;;;3.10;;
57321;SDS011;43159;51.006;18.224;2023-06-14T02:11:10;15.10;;;3.80;;
57321;SDS011;43159;51.006;18.224;2023-06-14T02:20:52;13.70;;;4.90;;
57321;SDS011;43159;51.006;18.224;2023-06-14T02:30:37;12.00;;;4.60;;
57321;SDS011;43159;51.006;18.224;2023-06-14T02:40:20;10.30;;;4.60;;
57321;SDS011;43159;51.006;18.224;2023-06-14T02:50:03;13.20;;;6.30;;
57321;SDS011;43159;51.006;18.224;2023-06-14T02:59:46;10.60;;;4.40;;
57321;SDS011;43159;51.006;18.224;2023-06-14T03:16:54;11.40;;;4.80;;
57321;SDS011;43159;51.006;18.224;2023-06-14T03:26:42;14.50;;;4.90;;
57321;SDS011;43159;51.006;18.224;2023-06-14T03:36:26;11.90;;;5.30;;
57321;SDS011;43159;51.006;18.224;2023-06-14T03:46:09;11.80;;;5.40;;
57321;SDS011;43159;51.006;18.224;2023-06-14T03:55:53;15.30;;;5.80;;
57321;SDS011;43159;51.006;18.224;2023-06-14T04:05:38;7.90;;;4.10;;
57321;SDS011;43159;51.006;18.224;2023-06-14T04:15:25;11.70;;;5.70;;
57321;SDS011;43159;51.006;18.224;2023-06-14T04:25:08;17.70;;;8.10;;
57321;SDS011;43159;51.006;18.224;2023-06-14T04:34:58;12.90;;;6.60;;
57321;SDS011;43159;51.006;18.224;2023-06-14T04:44:50;12.60;;;6.30;;
57321;SDS011;43159;51.006;18.224;2023-06-14T04:54:36;21.60;;;8.50;;
57321;SDS011;43159;51.006;18.224;2023-06-14T05:04:30;11.30;;;5.50;;
57321;SDS011;43159;51.006;18.224;2023-06-14T05:14:13;15.80;;;6.70;;
57321;SDS011;43159;51.006;18.224;2023-06-14T05:23:59;16.50;;;6.70;;
57321;SDS011;43159;51.006;18.224;2023-06-14T05:33:49;12.50;;;6.00;;
57321;SDS011;43159;51.006;18.224;2023-06-14T05:43:32;17.70;;;5.80;;
57321;SDS011;43159;51.006;18.224;2023-06-14T05:53:13;14.00;;;6.20;;
57321;SDS011;43159;51.006;18.224;2023-06-14T06:02:55;14.80;;;6.20;;
57321;SDS011;43159;51.006;18.224;2023-06-14T06:12:40;12.50;;;4.50;;
57321;SDS011;43159;51.006;18.224;2023-06-14T06:22:24;8.40;;;2.20;;
57321;SDS011;43159;51.006;18.224;2023-06-14T06:32:07;13.30;;;6.20;;
57321;SDS011;43159;51.006;18.224;2023-06-14T06:41:54;11.30;;;5.30;;
57321;SDS011;43159;51.006;18.224;2023-06-14T06:51:37;15.50;;;6.40;;
57321;SDS011;43159;51.006;18.224;2023-06-14T07:01:25;10.00;;;4.40;;
57321;SDS011;43159;51.006;18.224;2023-06-14T07:11:10;11.60;;;5.60;;
57321;SDS011;43159;51.006;18.224;2023-06-14T07:20:52;15.20;;;6.20;;
57321;SDS011;43159;51.006;18.224;2023-06-14T07:30:36;11.00;;;4.50;;
57321;SDS011;43159;51.006;18.224;2023-06-14T07:40:18;10.60;;;4.90;;
57321;SDS011;43159;51.006;18.224;2023-06-14T07:50:00;10.60;;;5.50;;
57321;SDS011;43159;51.006;18.224;2023-06-14T07:59:45;22.20;;;5.90;;
57321;SDS011;43159;51.006;18.224;2023-06-14T08:09:31;13.90;;;6.00;;
57321;SDS011;43159;51.006;18.224;2023-06-14T08:19:13;26.10;;;5.90;;
57321;SDS011;43159;51.006;18.224;2023-06-14T08:28:58;12.50;;;4.10;;
57321;SDS011;43159;51.006;18.224;2023-06-14T08:38:41;9.60;;;3.90;;
57321;SDS011;43159;51.006;18.224;2023-06-14T08:48:26;16.30;;;4.90;;
57321;SDS011;43159;51.006;18.224;2023-06-14T08:58:11;11.80;;;3.90;;
57321;SDS011;43159;51.006;18.224;2023-06-14T09:08:04;17.20;;;4.10;;
57321;SDS011;43159;51.006;18.224;2023-06-14T09:17:47;11.00;;;3.90;;
57321;SDS011;43159;51.006;18.224;2023-06-14T09:27:33;11.90;;;4.40;;
57321;SDS011;43159;51.006;18.224;2023-06-14T09:37:31;8.00;;;3.70;;
57321;SDS011;43159;51.006;18.224;2023-06-14T09:54:52;9.50;;;4.20;;
57321;SDS011;43159;51.006;18.224;2023-06-14T10:05:16;11.20;;;4.50;;
57321;SDS011;43159;51.006;18.224;2023-06-14T10:15:10;9.70;;;4.00;;
57321;SDS011;43159;51.006;18.224;2023-06-14T10:25:30;10.90;;;5.00;;
57321;SDS011;43159;51.006;18.224;2023-06-14T10:35:29;10.10;;;4.60;;
57321;SDS011;43159;51.006;18.224;2023-06-14T10:45:23;11.30;;;3.80;;
57321;SDS011;43159;51.006;18.224;2023-06-14T10:55:11;9.50;;;3.90;;
57321;SDS011;43159;51.006;18.224;2023-06-14T11:05:25;9.20;;;3.10;;
57321;SDS011;43159;51.006;18.224;2023-06-14T11:15:32;10.30;;;4.80;;
57321;SDS011;43159;51.006;18.224;2023-06-14T11:25:21;10.70;;;3.60;;
57321;SDS011;43159;51.006;18.224;2023-06-14T11:35:10;8.20;;;3.50;;
57321;SDS011;43159;51.006;18.224;2023-06-14T11:45:06;8.50;;;2.80;;
57321;SDS011;43159;51.006;18.224;2023-06-14T11:54:54;8.80;;;3.70;;
57321;SDS011;43159;51.006;18.224;2023-06-14T12:05:09;13.80;;;4.00;;
57321;SDS011;43159;51.006;18.224;2023-06-14T12:15:05;15.00;;;4.90;;
57321;SDS011;43159;51.006;18.224;2023-06-14T12:24:51;16.60;;;4.00;;
57321;SDS011;43159;51.006;18.224;2023-06-14T12:34:36;9.20;;;3.30;;
57321;SDS011;43159;51.006;18.224;2023-06-14T12:44:23;9.40;;;3.00;;
57321;SDS011;43159;51.006;18.224;2023-06-14T12:54:07;7.90;;;2.80;;
57321;SDS011;43159;51.006;18.224;2023-06-14T13:03:50;7.80;;;3.00;;
57321;SDS011;43159;51.006;18.224;2023-06-14T13:13:34;9.10;;;3.50;;
57321;SDS011;43159;51.006;18.224;2023-06-14T13:23:16;8.60;;;3.10;;
57321;SDS011;43159;51.006;18.224;2023-06-14T13:40:16;8.40;;;2.90;;
57321;SDS011;43159;51.006;18.224;2023-06-14T13:50:02;10.00;;;3.10;;
57321;SDS011;43159;51.006;18.224;2023-06-14T13:59:51;7.90;;;2.90;;
57321;SDS011;43159;51.006;18.224;2023-06-14T14:09:42;10.90;;;3.40;;
57321;SDS011;43159;51.006;18.224;2023-06-14T14:19:24;8.50;;;2.80;;
57321;SDS011;43159;51.006;18.224;2023-06-14T14:29:12;8.80;;;3.00;;
57321;SDS011;43159;51.006;18.224;2023-06-14T14:38:56;5.90;;;2.50;;
57321;SDS011;43159;51.006;18.224;2023-06-14T14:48:38;10.60;;;3.30;;
57321;SDS011;43159;51.006;18.224;2023-06-14T14:58:20;6.70;;;3.10;;
57321;SDS011;43159;51.006;18.224;2023-06-14T15:08:03;11.50;;;4.40;;
57321;SDS011;43159;51.006;18.224;2023-06-14T15:17:47;12.50;;;5.10;;
57321;SDS011;43159;51.006;18.224;2023-06-14T15:27:31;9.60;;;3.40;;
57321;SDS011;43159;51.006;18.224;2023-06-14T15:37:13;12.70;;;5.10;;
57321;SDS011;43159;51.006;18.224;2023-06-14T15:46:57;10.50;;;4.80;;
57321;SDS011;43159;51.006;18.224;2023-06-14T15:56:39;11.40;;;4.60;;
57321;SDS011;43159;51.006;18.224;2023-06-14T16:06:23;8.70;;;3.00;;
57321;SDS011;43159;51.006;18.224;2023-06-14T16:16:06;9.00;;;3.70;;
57321;SDS011;43159;51.006;18.224;2023-06-14T16:25:48;10.70;;;4.20;;
57321;SDS011;43159;51.006;18.224;2023-06-14T16:35:31;14.50;;;4.00;;
57321;SDS011;43159;51.006;18.224;2023-06-14T16:45:14;12.80;;;5.20;;
57321;SDS011;43159;51.006;18.224;2023-06-14T16:54:56;10.00;;;4.60;;
57321;SDS011;43159;51.006;18.224;2023-06-14T17:04:38;8.60;;;3.70;;
57321;SDS011;43159;51.006;18.224;2023-06-14T17:14:22;17.30;;;5.90;;
57321;SDS011;43159;51.006;18.224;2023-06-14T17:24:08;15.10;;;5.30;;
57321;SDS011;43159;51.006;18.224;2023-06-14T17:33:51;11.00;;;4.20;;
57321;SDS011;43159;51.006;18.224;2023-06-14T17:43:36;11.70;;;5.30;;
57321;SDS011;43159;51.006;18.224;2023-06-14T17:53:30;13.30;;;5.80;;
57321;SDS011;43159;51.006;18.224;2023-06-14T18:03:13;8.30;;;4.00;;
57321;SDS011;43159;51.006;18.224;2023-06-14T18:12:57;13.70;;;5.20;;
57321;SDS011;43159;51.006;18.224;2023-06-14T18:22:43;12.60;;;5.80;;
57321;SDS011;43159;51.006;18.224;2023-06-14T18:32:25;13.00;;;6.10;;
57321;SDS011;43159;51.006;18.224;2023-06-14T18:42:16;10.30;;;4.60;;
57321;SDS011;43159;51.006;18.224;2023-06-14T18:51:58;10.90;;;4.00;;
57321;SDS011;43159;51.006;18.224;2023-06-14T19:01:42;12.80;;;6.20;;
57321;SDS011;43159;51.006;18.224;2023-06-14T19:11:24;14.80;;;5.00;;
57321;SDS011;43159;51.006;18.224;2023-06-14T19:21:06;9.60;;;3.80;;
57321;SDS011;43159;51.006;18.224;2023-06-14T19:30:51;10.60;;;5.40;;
57321;SDS011;43159;51.006;18.224;2023-06-14T19:40:34;10.10;;;5.40;;
57321;SDS011;43159;51.006;18.224;2023-06-14T19:50:16;10.30;;;4.30;;
57321;SDS011;43159;51.006;18.224;2023-06-14T19:59:58;12.50;;;5.30;;
57321;SDS011;43159;51.006;18.224;2023-06-14T20:09:49;12.30;;;6.00;;
57321;SDS011;43159;51.006;18.224;2023-06-14T20:19:32;15.70;;;8.90;;
57321;SDS011;43159;51.006;18.224;2023-06-14T20:29:16;18.10;;;6.30;;
57321;SDS011;43159;51.006;18.224;2023-06-14T20:38:58;9.30;;;4.30;;
57321;SDS011;43159;51.006;18.224;2023-06-14T20:48:42;32.20;;;8.60;;
57321;SDS011;43159;51.006;18.224;2023-06-14T20:58:25;17.70;;;8.60;;
57321;SDS011;43159;51.006;18.224;2023-06-14T21:08:08;19.80;;;7.50;;
57321;SDS011;43159;51.006;18.224;2023-06-14T21:17:51;15.60;;;7.20;;
57321;SDS011;43159;51.006;18.224;2023-06-14T21:27:39;19.60;;;9.60;;
57321;SDS011;43159;51.006;18.224;2023-06-14T21:37:22;9.30;;;3.90;;
57321;SDS011;43159;51.006;18.224;2023-06-14T21:47:06;14.00;;;8.10;;
57321;SDS011;43159;51.006;18.224;2023-06-14T21:56:52;11.50;;;5.10;;
57321;SDS011;43159;51.006;18.224;2023-06-14T22:04:08;28.30;;;18.60;;
57321;SDS011;43159;51.006;18.224;2023-06-14T22:13:55;17.10;;;9.00;;
57321;SDS011;43159;51.006;18.224;2023-06-14T22:23:40;15.80;;;8.20;;
57321;SDS011;43159;51.006;18.224;2023-06-14T22:33:38;39.40;;;12.00;;
57321;SDS011;43159;51.006;18.224;2023-06-14T22:43:34;19.30;;;11.50;;
57321;SDS011;43159;51.006;18.224;2023-06-14T22:53:19;20.20;;;11.60;;
57321;SDS011;43159;51.006;18.224;2023-06-14T23:03:10;25.90;;;12.80;;
57321;SDS011;43159;51.006;18.224;2023-06-14T23:13:02;26.80;;;10.50;;
57321;SDS011;43159;51.006;18.224;2023-06-14T23:22:45;27.40;;;13.20;;
57321;SDS011;43159;51.006;18.224;2023-06-14T23:32:31;32.10;;;11.70;;
57321;SDS011;43159;51.006;18.224;2023-06-14T23:42:26;57.30;;;15.80;;
57321;SDS011;43159;51.006;18.224;2023-06-14T23:52:22;49.60;;;15.50;;
